sensor_id;sensor_type;location;lat;lon;timestamp;temperature;humidity
65637;DHT22;52327;42.622;23.316;2024-02-23T00:00:24;5.93;82.60
65637;DHT22;52327;42.622;23.316;2024-02-23T00:02:55;6.12;73.33
65637;DHT22;52327;42.622;23.316;2024-02-23T00:05:23;5.95;78.19
65637;DHT22;52327;42.622;23.316;2024-02-23T00:07:49;5.94;80.07
65637;DHT22;52327;42.622;23.316;2024-02-23T00:10:14;5.97;82.91
65637;DHT22;52327;42.622;23.316;2024-02-23T00:12:40;5.91;83.95
65637;DHT22;52327;42.622;23.316;2024-02-23T00:15:07;5.94;81.23
65637;DHT22;52327;42.622;23.316;2024-02-23T00:17:35;5.93;84.62
65637;DHT22;52327;42.622;23.316;2024-02-23T00:20:00;5.90;84.92
65637;DHT22;52327;42.622;23.316;2024-02-23T00:22:32;5.88;82.31
65637;DHT22;52327;42.622;23.316;2024-02-23T00:24:57;5.87;84.94
65637;DHT22;52327;42.622;23.316;2024-02-23T00:27:25;5.90;82.91
65637;DHT22;52327;42.622;23.316;2024-02-23T00:29:51;5.71;81.11
65637;DHT22;52327;42.622;23.316;2024-02-23T00:32:19;5.77;82.69
65637;DHT22;52327;42.622;23.316;2024-02-23T00:34:45;5.80;83.38
65637;DHT22;52327;42.622;23.316;2024-02-23T00:37:15;5.97;79.81
65637;DHT22;52327;42.622;23.316;2024-02-23T00:39:44;5.95;80.96
65637;DHT22;52327;42.622;23.316;2024-02-23T00:42:16;6.02;80.92
65637;DHT22;52327;42.622;23.316;2024-02-23T00:44:46;5.94;83.75
65637;DHT22;52327;42.622;23.316;2024-02-23T00:47:11;5.84;82.65
65637;DHT22;52327;42.622;23.316;2024-02-23T00:49:40;5.86;85.14
65637;DHT22;52327;42.622;23.316;2024-02-23T00:52:06;5.86;83.45
65637;DHT22;52327;42.622;23.316;2024-02-23T00:54:31;5.83;84.51
65637;DHT22;52327;42.622;23.316;2024-02-23T00:56:57;5.87;85.41
65637;DHT22;52327;42.622;23.316;2024-02-23T00:59:22;5.98;80.38
65637;DHT22;52327;42.622;23.316;2024-02-23T01:01:54;6.00;84.04
65637;DHT22;52327;42.622;23.316;2024-02-23T01:04:20;6.20;77.49
65637;DHT22;52327;42.622;23.316;2024-02-23T01:07:04;6.14;80.30
65637;DHT22;52327;42.622;23.316;2024-02-23T01:09:32;6.17;81.42
65637;DHT22;52327;42.622;23.316;2024-02-23T01:12:02;6.08;80.74
65637;DHT22;52327;42.622;23.316;2024-02-23T01:14:31;6.12;81.33
65637;DHT22;52327;42.622;23.316;2024-02-23T01:16:56;6.25;75.68
65637;DHT22;52327;42.622;23.316;2024-02-23T01:19:25;6.12;81.69
65637;DHT22;52327;42.622;23.316;2024-02-23T01:21:50;6.01;83.66
65637;DHT22;52327;42.622;23.316;2024-02-23T01:24:24;6.12;76.02
65637;DHT22;52327;42.622;23.316;2024-02-23T01:26:51;6.08;80.97
65637;DHT22;52327;42.622;23.316;2024-02-23T01:29:25;6.12;78.82
65637;DHT22;52327;42.622;23.316;2024-02-23T01:31:55;6.10;82.47
65637;DHT22;52327;42.622;23.316;2024-02-23T01:34:23;6.05;82.72
65637;DHT22;52327;42.622;23.316;2024-02-23T01:36:48;6.00;84.65
65637;DHT22;52327;42.622;23.316;2024-02-23T01:39:14;6.01;81.39
65637;DHT22;52327;42.622;23.316;2024-02-23T01:41:42;5.97;83.55
65637;DHT22;52327;42.622;23.316;2024-02-23T01:44:18;5.97;84.21
65637;DHT22;52327;42.622;23.316;2024-02-23T01:46:47;6.10;77.36
65637;DHT22;52327;42.622;23.316;2024-02-23T01:49:38;6.07;82.36
65637;DHT22;52327;42.622;23.316;2024-02-23T01:52:16;6.17;78.98
65637;DHT22;52327;42.622;23.316;2024-02-23T01:54:44;6.28;72.46
65637;DHT22;52327;42.622;23.316;2024-02-23T01:57:14;6.25;72.51
65637;DHT22;52327;42.622;23.316;2024-02-23T01:59:40;6.20;79.10
65637;DHT22;52327;42.622;23.316;2024-02-23T02:02:09;5.94;82.77
65637;DHT22;52327;42.622;23.316;2024-02-23T02:04:40;5.73;80.10
65637;DHT22;52327;42.622;23.316;2024-02-23T02:07:11;5.66;83.57
65637;DHT22;52327;42.622;23.316;2024-02-23T02:09:38;5.77;83.08
65637;DHT22;52327;42.622;23.316;2024-02-23T02:12:07;5.84;80.61
65637;DHT22;52327;42.622;23.316;2024-02-23T02:14:32;5.98;79.56
65637;DHT22;52327;42.622;23.316;2024-02-23T02:17:01;6.12;81.45
65637;DHT22;52327;42.622;23.316;2024-02-23T02:19:29;6.14;80.98
65637;DHT22;52327;42.622;23.316;2024-02-23T02:21:55;6.20;79.77
65637;DHT22;52327;42.622;23.316;2024-02-23T02:24:24;6.28;80.27
65637;DHT22;52327;42.622;23.316;2024-02-23T02:26:49;6.21;75.24
65637;DHT22;52327;42.622;23.316;2024-02-23T02:29:17;6.14;75.23
65637;DHT22;52327;42.622;23.316;2024-02-23T02:31:43;6.12;81.00
65637;DHT22;52327;42.622;23.316;2024-02-23T02:34:08;5.98;78.74
65637;DHT22;52327;42.622;23.316;2024-02-23T02:36:41;6.02;78.99
65637;DHT22;52327;42.622;23.316;2024-02-23T02:39:09;5.94;78.41
65637;DHT22;52327;42.622;23.316;2024-02-23T02:41:47;6.14;81.53
65637;DHT22;52327;42.622;23.316;2024-02-23T02:44:12;6.17;80.92
65637;DHT22;52327;42.622;23.316;2024-02-23T02:46:44;6.15;76.64
65637;DHT22;52327;42.622;23.316;2024-02-23T02:49:12;6.17;77.16
65637;DHT22;52327;42.622;23.316;2024-02-23T02:51:38;6.29;71.61
65637;DHT22;52327;42.622;23.316;2024-02-23T02:54:04;6.32;74.01
65637;DHT22;52327;42.622;23.316;2024-02-23T02:56:32;6.24;79.16
65637;DHT22;52327;42.622;23.316;2024-02-23T02:59:13;6.07;82.28
65637;DHT22;52327;42.622;23.316;2024-02-23T03:01:39;5.91;82.97
65637;DHT22;52327;42.622;23.316;2024-02-23T03:04:07;5.91;82.06
65637;DHT22;52327;42.622;23.316;2024-02-23T03:06:33;6.02;73.81
65637;DHT22;52327;42.622;23.316;2024-02-23T03:08:58;6.11;75.28
65637;DHT22;52327;42.622;23.316;2024-02-23T03:11:24;6.10;77.15
65637;DHT22;52327;42.622;23.316;2024-02-23T03:13:49;6.01;81.36
65637;DHT22;52327;42.622;23.316;2024-02-23T03:16:21;6.07;76.21
65637;DHT22;52327;42.622;23.316;2024-02-23T03:18:48;5.95;80.22
65637;DHT22;52327;42.622;23.316;2024-02-23T03:21:21;5.91;83.15
65637;DHT22;52327;42.622;23.316;2024-02-23T03:23:46;5.81;83.06
65637;DHT22;52327;42.622;23.316;2024-02-23T03:26:18;5.74;83.55
65637;DHT22;52327;42.622;23.316;2024-02-23T03:28:46;5.75;79.95
65637;DHT22;52327;42.622;23.316;2024-02-23T03:31:17;5.84;76.82
65637;DHT22;52327;42.622;23.316;2024-02-23T03:33:43;5.83;80.90
65637;DHT22;52327;42.622;23.316;2024-02-23T03:36:14;5.77;83.01
65637;DHT22;52327;42.622;23.316;2024-02-23T03:38:40;5.75;82.44
65637;DHT22;52327;42.622;23.316;2024-02-23T03:41:08;5.80;84.86
65637;DHT22;52327;42.622;23.316;2024-02-23T03:46:31;5.75;84.75
65637;DHT22;52327;42.622;23.316;2024-02-23T03:49:05;5.80;80.12
65637;DHT22;52327;42.622;23.316;2024-02-23T03:51:35;5.87;80.54
65637;DHT22;52327;42.622;23.316;2024-02-23T03:54:04;5.87;74.53
65637;DHT22;52327;42.622;23.316;2024-02-23T03:56:39;5.91;77.36
65637;DHT22;52327;42.622;23.316;2024-02-23T03:59:11;5.93;75.93
65637;DHT22;52327;42.622;23.316;2024-02-23T04:01:42;5.81;76.72
65637;DHT22;52327;42.622;23.316;2024-02-23T04:04:10;5.75;81.73
65637;DHT22;52327;42.622;23.316;2024-02-23T04:06:39;5.73;82.64
65637;DHT22;52327;42.622;23.316;2024-02-23T04:09:04;5.61;84.52
65637;DHT22;52327;42.622;23.316;2024-02-23T04:11:31;5.73;77.49
65637;DHT22;52327;42.622;23.316;2024-02-23T04:14:07;5.64;84.31
65637;DHT22;52327;42.622;23.316;2024-02-23T04:16:32;5.63;83.01
65637;DHT22;52327;42.622;23.316;2024-02-23T04:18:58;5.64;84.79
65637;DHT22;52327;42.622;23.316;2024-02-23T04:21:25;5.71;82.32
65637;DHT22;52327;42.622;23.316;2024-02-23T04:23:56;5.66;81.64
65637;DHT22;52327;42.622;23.316;2024-02-23T04:26:21;5.69;83.17
65637;DHT22;52327;42.622;23.316;2024-02-23T04:28:51;5.42;78.68
65637;DHT22;52327;42.622;23.316;2024-02-23T04:31:23;5.44;80.27
65637;DHT22;52327;42.622;23.316;2024-02-23T04:33:59;5.49;82.88
65637;DHT22;52327;42.622;23.316;2024-02-23T04:36:33;5.51;82.12
65637;DHT22;52327;42.622;23.316;2024-02-23T04:38:59;5.46;84.03
65637;DHT22;52327;42.622;23.316;2024-02-23T04:41:24;5.36;79.99
65637;DHT22;52327;42.622;23.316;2024-02-23T04:43:55;5.43;78.39
65637;DHT22;52327;42.622;23.316;2024-02-23T04:46:25;5.40;81.44
65637;DHT22;52327;42.622;23.316;2024-02-23T04:48:58;5.30;83.76
65637;DHT22;52327;42.622;23.316;2024-02-23T04:51:30;5.19;84.82
65637;DHT22;52327;42.622;23.316;2024-02-23T04:54:01;5.19;82.43
65637;DHT22;52327;42.622;23.316;2024-02-23T04:56:27;5.22;82.71
65637;DHT22;52327;42.622;23.316;2024-02-23T04:58:52;5.20;84.32
65637;DHT22;52327;42.622;23.316;2024-02-23T05:01:24;5.11;84.41
65637;DHT22;52327;42.622;23.316;2024-02-23T05:03:54;5.25;80.43
65637;DHT22;52327;42.622;23.316;2024-02-23T05:06:30;5.22;84.08
65637;DHT22;52327;42.622;23.316;2024-02-23T05:09:06;5.20;84.62
65637;DHT22;52327;42.622;23.316;2024-02-23T05:11:34;5.35;77.87
65637;DHT22;52327;42.622;23.316;2024-02-23T05:14:00;5.30;83.74
65637;DHT22;52327;42.622;23.316;2024-02-23T05:16:25;5.06;84.67
65637;DHT22;52327;42.622;23.316;2024-02-23T05:18:51;4.98;85.65
65637;DHT22;52327;42.622;23.316;2024-02-23T05:21:21;4.85;84.11
65637;DHT22;52327;42.622;23.316;2024-02-23T05:23:47;5.04;79.71
65637;DHT22;52327;42.622;23.316;2024-02-23T05:26:12;4.98;84.93
65637;DHT22;52327;42.622;23.316;2024-02-23T05:28:38;4.85;86.06
65637;DHT22;52327;42.622;23.316;2024-02-23T05:31:03;4.88;86.50
65637;DHT22;52327;42.622;23.316;2024-02-23T05:33:30;4.82;86.18
65637;DHT22;52327;42.622;23.316;2024-02-23T05:35:55;4.84;86.40
65637;DHT22;52327;42.622;23.316;2024-02-23T05:38:21;4.77;86.98
65637;DHT22;52327;42.622;23.316;2024-02-23T05:40:49;4.79;80.10
65637;DHT22;52327;42.622;23.316;2024-02-23T05:43:14;4.79;83.22
65637;DHT22;52327;42.622;23.316;2024-02-23T05:45:40;5.08;80.14
65637;DHT22;52327;42.622;23.316;2024-02-23T05:48:16;5.11;83.97
65637;DHT22;52327;42.622;23.316;2024-02-23T05:50:47;4.82;80.88
65637;DHT22;52327;42.622;23.316;2024-02-23T05:53:16;5.15;79.84
65637;DHT22;52327;42.622;23.316;2024-02-23T05:55:41;5.23;80.08
65637;DHT22;52327;42.622;23.316;2024-02-23T05:58:10;5.40;81.56
65637;DHT22;52327;42.622;23.316;2024-02-23T06:00:35;5.53;81.26
65637;DHT22;52327;42.622;23.316;2024-02-23T06:03:01;5.57;84.08
65637;DHT22;52327;42.622;23.316;2024-02-23T06:05:29;5.66;82.59
65637;DHT22;52327;42.622;23.316;2024-02-23T06:07:55;5.75;82.85
65637;DHT22;52327;42.622;23.316;2024-02-23T06:10:20;5.95;76.73
65637;DHT22;52327;42.622;23.316;2024-02-23T06:12:46;6.08;73.94
65637;DHT22;52327;42.622;23.316;2024-02-23T06:15:11;6.15;75.99
65637;DHT22;52327;42.622;23.316;2024-02-23T06:17:37;6.12;79.35
65637;DHT22;52327;42.622;23.316;2024-02-23T06:20:05;6.17;81.49
65637;DHT22;52327;42.622;23.316;2024-02-23T06:22:30;6.18;82.79
65637;DHT22;52327;42.622;23.316;2024-02-23T06:24:57;6.29;81.62
65637;DHT22;52327;42.622;23.316;2024-02-23T06:27:23;6.39;80.64
65637;DHT22;52327;42.622;23.316;2024-02-23T06:29:50;6.41;81.66
65637;DHT22;52327;42.622;23.316;2024-02-23T06:32:15;6.50;80.36
65637;DHT22;52327;42.622;23.316;2024-02-23T06:34:41;6.53;80.14
65637;DHT22;52327;42.622;23.316;2024-02-23T06:37:07;6.55;81.30
65637;DHT22;52327;42.622;23.316;2024-02-23T06:39:32;6.62;81.56
65637;DHT22;52327;42.622;23.316;2024-02-23T06:41:57;6.69;80.46
65637;DHT22;52327;42.622;23.316;2024-02-23T06:44:25;6.82;79.28
65637;DHT22;52327;42.622;23.316;2024-02-23T06:46:51;6.86;78.25
65637;DHT22;52327;42.622;23.316;2024-02-23T06:49:16;6.93;80.59
65637;DHT22;52327;42.622;23.316;2024-02-23T06:51:42;6.99;80.41
65637;DHT22;52327;42.622;23.316;2024-02-23T06:54:07;7.00;78.38
65637;DHT22;52327;42.622;23.316;2024-02-23T06:56:33;7.08;78.43
65637;DHT22;52327;42.622;23.316;2024-02-23T06:58:59;7.10;77.95
65637;DHT22;52327;42.622;23.316;2024-02-23T07:01:25;7.25;78.23
65637;DHT22;52327;42.622;23.316;2024-02-23T07:03:50;7.31;78.58
65637;DHT22;52327;42.622;23.316;2024-02-23T07:06:16;7.38;77.37
65637;DHT22;52327;42.622;23.316;2024-02-23T07:08:44;7.43;78.26
65637;DHT22;52327;42.622;23.316;2024-02-23T07:11:10;7.43;77.34
65637;DHT22;52327;42.622;23.316;2024-02-23T07:13:35;7.41;74.85
65637;DHT22;52327;42.622;23.316;2024-02-23T07:16:00;7.56;77.16
65637;DHT22;52327;42.622;23.316;2024-02-23T07:18:26;7.69;78.20
65637;DHT22;52327;42.622;23.316;2024-02-23T07:20:51;7.59;74.58
65637;DHT22;52327;42.622;23.316;2024-02-23T07:23:17;7.65;76.57
65637;DHT22;52327;42.622;23.316;2024-02-23T07:25:42;7.71;77.15
65637;DHT22;52327;42.622;23.316;2024-02-23T07:28:07;7.79;75.24
65637;DHT22;52327;42.622;23.316;2024-02-23T07:30:33;7.79;75.01
65637;DHT22;52327;42.622;23.316;2024-02-23T07:33:00;8.00;68.12
65637;DHT22;52327;42.622;23.316;2024-02-23T07:35:25;7.95;75.01
65637;DHT22;52327;42.622;23.316;2024-02-23T07:37:51;7.86;76.82
65637;DHT22;52327;42.622;23.316;2024-02-23T07:40:16;7.85;77.42
65637;DHT22;52327;42.622;23.316;2024-02-23T07:42:42;7.89;77.84
65637;DHT22;52327;42.622;23.316;2024-02-23T07:45:07;8.00;72.88
65637;DHT22;52327;42.622;23.316;2024-02-23T07:47:34;7.99;75.26
65637;DHT22;52327;42.622;23.316;2024-02-23T07:49:59;8.27;67.24
65637;DHT22;52327;42.622;23.316;2024-02-23T07:52:25;8.25;72.75
65637;DHT22;52327;42.622;23.316;2024-02-23T07:54:52;8.33;70.70
65637;DHT22;52327;42.622;23.316;2024-02-23T07:57:18;8.30;73.86
65637;DHT22;52327;42.622;23.316;2024-02-23T07:59:44;8.33;74.51
65637;DHT22;52327;42.622;23.316;2024-02-23T08:02:09;8.38;70.61
65637;DHT22;52327;42.622;23.316;2024-02-23T08:04:36;8.36;75.84
65637;DHT22;52327;42.622;23.316;2024-02-23T08:07:01;8.29;74.38
65637;DHT22;52327;42.622;23.316;2024-02-23T08:09:26;8.34;76.95
65637;DHT22;52327;42.622;23.316;2024-02-23T08:11:52;8.38;71.71
65637;DHT22;52327;42.622;23.316;2024-02-23T08:14:17;8.33;76.62
65637;DHT22;52327;42.622;23.316;2024-02-23T08:16:43;8.32;74.52
65637;DHT22;52327;42.622;23.316;2024-02-23T08:19:08;8.25;75.85
65637;DHT22;52327;42.622;23.316;2024-02-23T08:21:33;8.20;76.87
65637;DHT22;52327;42.622;23.316;2024-02-23T08:23:59;8.22;77.11
65637;DHT22;52327;42.622;23.316;2024-02-23T08:26:24;8.37;72.62
65637;DHT22;52327;42.622;23.316;2024-02-23T08:28:50;8.37;74.73
65637;DHT22;52327;42.622;23.316;2024-02-23T08:31:15;8.54;69.51
65637;DHT22;52327;42.622;23.316;2024-02-23T08:33:41;8.48;74.92
65637;DHT22;52327;42.622;23.316;2024-02-23T08:36:07;8.43;77.03
65637;DHT22;52327;42.622;23.316;2024-02-23T08:38:32;8.61;73.63
65637;DHT22;52327;42.622;23.316;2024-02-23T08:40:58;8.74;76.44
65637;DHT22;52327;42.622;23.316;2024-02-23T08:43:24;8.93;75.40
65637;DHT22;52327;42.622;23.316;2024-02-23T08:45:49;8.98;76.70
65637;DHT22;52327;42.622;23.316;2024-02-23T08:48:14;9.16;74.08
65637;DHT22;52327;42.622;23.316;2024-02-23T08:50:40;9.23;76.24
65637;DHT22;52327;42.622;23.316;2024-02-23T08:53:06;9.32;75.55
65637;DHT22;52327;42.622;23.316;2024-02-23T08:55:31;9.50;74.07
65637;DHT22;52327;42.622;23.316;2024-02-23T08:57:58;9.60;72.62
65637;DHT22;52327;42.622;23.316;2024-02-23T09:03:07;9.87;75.08
65637;DHT22;52327;42.622;23.316;2024-02-23T09:05:33;9.98;73.58
65637;DHT22;52327;42.622;23.316;2024-02-23T09:07:58;10.01;73.61
65637;DHT22;52327;42.622;23.316;2024-02-23T09:10:24;10.15;71.63
65637;DHT22;52327;42.622;23.316;2024-02-23T09:12:49;10.37;70.83
65637;DHT22;52327;42.622;23.316;2024-02-23T09:15:14;10.52;72.28
65637;DHT22;52327;42.622;23.316;2024-02-23T09:17:40;10.58;70.37
65637;DHT22;52327;42.622;23.316;2024-02-23T09:20:07;10.71;66.69
65637;DHT22;52327;42.622;23.316;2024-02-23T09:22:32;10.73;69.66
65637;DHT22;52327;42.622;23.316;2024-02-23T09:24:58;10.83;69.45
65637;DHT22;52327;42.622;23.316;2024-02-23T09:27:23;10.96;68.56
65637;DHT22;52327;42.622;23.316;2024-02-23T09:29:49;11.02;69.26
65637;DHT22;52327;42.622;23.316;2024-02-23T09:32:14;10.86;68.43
65637;DHT22;52327;42.622;23.316;2024-02-23T09:34:40;10.99;67.59
65637;DHT22;52327;42.622;23.316;2024-02-23T09:37:05;11.30;65.86
65637;DHT22;52327;42.622;23.316;2024-02-23T09:39:30;11.50;65.46
65637;DHT22;52327;42.622;23.316;2024-02-23T09:41:56;11.54;67.10
65637;DHT22;52327;42.622;23.316;2024-02-23T09:44:22;11.43;67.90
65637;DHT22;52327;42.622;23.316;2024-02-23T09:46:48;11.60;64.86
65637;DHT22;52327;42.622;23.316;2024-02-23T09:49:17;11.65;66.12
65637;DHT22;52327;42.622;23.316;2024-02-23T09:51:43;11.74;64.91
65637;DHT22;52327;42.622;23.316;2024-02-23T09:54:09;11.13;66.80
65637;DHT22;52327;42.622;23.316;2024-02-23T09:56:34;11.23;67.07
65637;DHT22;52327;42.622;23.316;2024-02-23T09:59:03;11.17;63.41
65637;DHT22;52327;42.622;23.316;2024-02-23T10:01:30;11.10;66.84
65637;DHT22;52327;42.622;23.316;2024-02-23T10:03:57;11.43;67.00
65637;DHT22;52327;42.622;23.316;2024-02-23T10:06:24;11.60;62.13
65637;DHT22;52327;42.622;23.316;2024-02-23T10:08:50;11.79;63.95
65637;DHT22;52327;42.622;23.316;2024-02-23T10:11:18;11.96;63.77
65637;DHT22;52327;42.622;23.316;2024-02-23T10:13:44;12.22;63.66
65637;DHT22;52327;42.622;23.316;2024-02-23T10:16:09;12.40;62.88
65637;DHT22;52327;42.622;23.316;2024-02-23T10:18:38;12.47;61.77
65637;DHT22;52327;42.622;23.316;2024-02-23T10:21:04;12.09;62.01
65637;DHT22;52327;42.622;23.316;2024-02-23T10:23:30;11.89;62.09
65637;DHT22;52327;42.622;23.316;2024-02-23T10:25:56;12.29;63.41
65637;DHT22;52327;42.622;23.316;2024-02-23T10:28:21;12.22;59.54
65637;DHT22;52327;42.622;23.316;2024-02-23T10:30:48;11.98;61.46
65637;DHT22;52327;42.622;23.316;2024-02-23T10:33:14;12.15;61.12
65637;DHT22;52327;42.622;23.316;2024-02-23T10:35:40;12.49;62.54
65637;DHT22;52327;42.622;23.316;2024-02-23T10:38:08;12.64;63.28
65637;DHT22;52327;42.622;23.316;2024-02-23T10:40:39;12.79;60.07
65637;DHT22;52327;42.622;23.316;2024-02-23T10:43:12;12.91;57.64
65637;DHT22;52327;42.622;23.316;2024-02-23T10:45:41;13.14;57.31
65637;DHT22;52327;42.622;23.316;2024-02-23T10:48:10;13.27;56.61
65637;DHT22;52327;42.622;23.316;2024-02-23T10:50:37;13.31;64.04
65637;DHT22;52327;42.622;23.316;2024-02-23T10:53:04;13.11;52.41
65637;DHT22;52327;42.622;23.316;2024-02-23T10:55:32;13.06;59.54
65637;DHT22;52327;42.622;23.316;2024-02-23T10:58:01;13.17;60.60
65637;DHT22;52327;42.622;23.316;2024-02-23T11:00:28;13.17;63.91
65637;DHT22;52327;42.622;23.316;2024-02-23T11:02:54;13.18;62.52
65637;DHT22;52327;42.622;23.316;2024-02-23T11:05:21;13.31;60.79
65637;DHT22;52327;42.622;23.316;2024-02-23T11:07:48;13.45;57.47
65637;DHT22;52327;42.622;23.316;2024-02-23T11:10:17;13.58;56.20
65637;DHT22;52327;42.622;23.316;2024-02-23T11:12:43;13.65;58.02
65637;DHT22;52327;42.622;23.316;2024-02-23T11:15:09;13.47;59.33
65637;DHT22;52327;42.622;23.316;2024-02-23T11:17:36;13.66;59.99
65637;DHT22;52327;42.622;23.316;2024-02-23T11:20:05;13.80;60.52
65637;DHT22;52327;42.622;23.316;2024-02-23T11:22:34;13.76;53.32
65637;DHT22;52327;42.622;23.316;2024-02-23T11:25:07;13.78;58.94
65637;DHT22;52327;42.622;23.316;2024-02-23T11:27:37;13.98;58.45
65637;DHT22;52327;42.622;23.316;2024-02-23T11:30:05;14.17;54.59
65637;DHT22;52327;42.622;23.316;2024-02-23T11:32:41;14.09;57.34
65637;DHT22;52327;42.622;23.316;2024-02-23T11:35:13;13.52;56.66
65637;DHT22;52327;42.622;23.316;2024-02-23T11:37:48;13.29;57.33
65637;DHT22;52327;42.622;23.316;2024-02-23T11:40:15;13.37;61.39
65637;DHT22;52327;42.622;23.316;2024-02-23T11:42:42;13.65;55.79
65637;DHT22;52327;42.622;23.316;2024-02-23T11:45:09;13.95;52.79
65637;DHT22;52327;42.622;23.316;2024-02-23T11:47:36;14.10;54.97
65637;DHT22;52327;42.622;23.316;2024-02-23T11:50:02;14.05;56.10
65637;DHT22;52327;42.622;23.316;2024-02-23T11:52:27;14.30;57.24
65637;DHT22;52327;42.622;23.316;2024-02-23T11:54:53;14.10;55.39
65637;DHT22;52327;42.622;23.316;2024-02-23T11:57:18;13.90;55.05
65637;DHT22;52327;42.622;23.316;2024-02-23T11:59:44;14.29;59.21
65637;DHT22;52327;42.622;23.316;2024-02-23T12:02:09;14.78;52.79
65637;DHT22;52327;42.622;23.316;2024-02-23T12:04:38;15.18;50.97
65637;DHT22;52327;42.622;23.316;2024-02-23T12:07:03;15.31;53.73
65637;DHT22;52327;42.622;23.316;2024-02-23T12:09:29;14.91;49.94
65637;DHT22;52327;42.622;23.316;2024-02-23T12:11:55;14.77;48.30
65637;DHT22;52327;42.622;23.316;2024-02-23T12:14:21;15.29;52.64
65637;DHT22;52327;42.622;23.316;2024-02-23T12:16:53;15.70;53.77
65637;DHT22;52327;42.622;23.316;2024-02-23T12:19:19;15.84;53.04
65637;DHT22;52327;42.622;23.316;2024-02-23T12:21:45;16.14;50.16
65637;DHT22;52327;42.622;23.316;2024-02-23T12:24:12;16.47;47.49
65637;DHT22;52327;42.622;23.316;2024-02-23T12:26:43;16.36;47.26
65637;DHT22;52327;42.622;23.316;2024-02-23T12:29:09;16.01;50.15
65637;DHT22;52327;42.622;23.316;2024-02-23T12:31:35;16.03;51.12
65637;DHT22;52327;42.622;23.316;2024-02-23T12:34:00;16.44;52.32
65637;DHT22;52327;42.622;23.316;2024-02-23T12:36:26;16.73;52.07
65637;DHT22;52327;42.622;23.316;2024-02-23T12:38:52;17.19;42.32
65637;DHT22;52327;42.622;23.316;2024-02-23T12:41:17;17.64;47.86
65637;DHT22;52327;42.622;23.316;2024-02-23T12:43:42;17.94;41.85
65637;DHT22;52327;42.622;23.316;2024-02-23T12:46:08;18.15;47.85
65637;DHT22;52327;42.622;23.316;2024-02-23T12:48:34;18.19;46.90
65637;DHT22;52327;42.622;23.316;2024-02-23T12:51:00;18.38;46.57
65637;DHT22;52327;42.622;23.316;2024-02-23T12:53:33;18.91;48.76
65637;DHT22;52327;42.622;23.316;2024-02-23T12:56:06;19.48;43.74
65637;DHT22;52327;42.622;23.316;2024-02-23T12:58:33;19.17;43.10
65637;DHT22;52327;42.622;23.316;2024-02-23T13:00:59;20.17;40.98
65637;DHT22;52327;42.622;23.316;2024-02-23T13:03:25;20.54;44.24
65637;DHT22;52327;42.622;23.316;2024-02-23T13:05:55;21.18;41.53
65637;DHT22;52327;42.622;23.316;2024-02-23T13:08:21;21.29;40.92
65637;DHT22;52327;42.622;23.316;2024-02-23T13:10:47;20.39;39.73
65637;DHT22;52327;42.622;23.316;2024-02-23T13:13:13;19.90;45.77
65637;DHT22;52327;42.622;23.316;2024-02-23T13:15:46;20.08;48.00
65637;DHT22;52327;42.622;23.316;2024-02-23T13:18:12;20.06;45.73
65637;DHT22;52327;42.622;23.316;2024-02-23T13:20:41;19.87;49.41
65637;DHT22;52327;42.622;23.316;2024-02-23T13:23:07;19.73;47.06
65637;DHT22;52327;42.622;23.316;2024-02-23T13:25:34;19.73;46.07
65637;DHT22;52327;42.622;23.316;2024-02-23T13:28:00;19.41;44.82
65637;DHT22;52327;42.622;23.316;2024-02-23T13:30:25;18.60;44.43
65637;DHT22;52327;42.622;23.316;2024-02-23T13:32:52;18.52;45.37
65637;DHT22;52327;42.622;23.316;2024-02-23T13:35:17;18.12;46.94
65637;DHT22;52327;42.622;23.316;2024-02-23T13:37:43;17.33;43.14
65637;DHT22;52327;42.622;23.316;2024-02-23T13:40:10;18.48;51.16
65637;DHT22;52327;42.622;23.316;2024-02-23T13:42:36;19.62;42.23
65637;DHT22;52327;42.622;23.316;2024-02-23T13:45:05;19.72;45.54
65637;DHT22;52327;42.622;23.316;2024-02-23T13:47:30;19.83;46.38
65637;DHT22;52327;42.622;23.316;2024-02-23T13:49:56;20.08;46.22
65637;DHT22;52327;42.622;23.316;2024-02-23T13:52:21;20.17;45.88
65637;DHT22;52327;42.622;23.316;2024-02-23T13:54:47;20.08;42.86
65637;DHT22;52327;42.622;23.316;2024-02-23T13:57:12;19.39;43.20
65637;DHT22;52327;42.622;23.316;2024-02-23T13:59:37;18.06;41.95
65637;DHT22;52327;42.622;23.316;2024-02-23T14:02:03;17.95;48.80
65637;DHT22;52327;42.622;23.316;2024-02-23T14:04:28;18.46;51.56
65637;DHT22;52327;42.622;23.316;2024-02-23T14:06:54;18.77;49.46
65637;DHT22;52327;42.622;23.316;2024-02-23T14:09:19;18.91;47.06
65637;DHT22;52327;42.622;23.316;2024-02-23T14:11:45;18.89;49.09
65637;DHT22;52327;42.622;23.316;2024-02-23T14:14:13;18.81;53.34
65637;DHT22;52327;42.622;23.316;2024-02-23T14:16:39;17.78;49.14
65637;DHT22;52327;42.622;23.316;2024-02-23T14:19:04;17.06;44.28
65637;DHT22;52327;42.622;23.316;2024-02-23T14:21:30;16.48;43.88
65637;DHT22;52327;42.622;23.316;2024-02-23T14:23:55;15.89;43.09
65637;DHT22;52327;42.622;23.316;2024-02-23T14:26:21;15.19;47.39
65637;DHT22;52327;42.622;23.316;2024-02-23T14:28:47;14.99;45.51
65637;DHT22;52327;42.622;23.316;2024-02-23T14:31:14;14.85;53.28
65637;DHT22;52327;42.622;23.316;2024-02-23T14:33:39;14.63;49.07
65637;DHT22;52327;42.622;23.316;2024-02-23T14:36:05;14.57;44.92
65637;DHT22;52327;42.622;23.316;2024-02-23T14:38:31;14.19;48.35
65637;DHT22;52327;42.622;23.316;2024-02-23T14:40:56;14.24;49.93
65637;DHT22;52327;42.622;23.316;2024-02-23T14:43:21;14.09;52.06
65637;DHT22;52327;42.622;23.316;2024-02-23T14:45:47;14.17;49.16
65637;DHT22;52327;42.622;23.316;2024-02-23T14:48:12;14.14;46.57
65637;DHT22;52327;42.622;23.316;2024-02-23T14:50:38;14.41;55.08
65637;DHT22;52327;42.622;23.316;2024-02-23T14:53:04;14.59;48.65
65637;DHT22;52327;42.622;23.316;2024-02-23T14:55:30;14.78;57.44
65637;DHT22;52327;42.622;23.316;2024-02-23T14:57:55;14.68;50.57
65637;DHT22;52327;42.622;23.316;2024-02-23T15:00:23;14.43;51.95
65637;DHT22;52327;42.622;23.316;2024-02-23T15:02:48;14.34;51.68
65637;DHT22;52327;42.622;23.316;2024-02-23T15:05:14;14.67;54.17
65637;DHT22;52327;42.622;23.316;2024-02-23T15:07:40;15.01;52.81
65637;DHT22;52327;42.622;23.316;2024-02-23T15:10:06;15.13;52.46
65637;DHT22;52327;42.622;23.316;2024-02-23T15:12:34;14.93;57.25
65637;DHT22;52327;42.622;23.316;2024-02-23T15:14:59;15.16;43.55
65637;DHT22;52327;42.622;23.316;2024-02-23T15:17:25;15.19;56.89
65637;DHT22;52327;42.622;23.316;2024-02-23T15:19:50;14.99;53.88
65637;DHT22;52327;42.622;23.316;2024-02-23T15:22:16;15.02;53.05
65637;DHT22;52327;42.622;23.316;2024-02-23T15:24:44;14.95;48.53
65637;DHT22;52327;42.622;23.316;2024-02-23T15:27:18;14.65;54.49
65637;DHT22;52327;42.622;23.316;2024-02-23T15:29:44;14.64;55.73